createdAt,value
2023-03-06T05:15:09.624Z,0.00
2023-03-06T05:16:09.564Z,0.00
2023-03-06T05:17:09.533Z,0.00
2023-03-06T05:18:09.506Z,0.00
2023-03-06T05:19:09.514Z,0.00
2023-03-06T05:20:09.476Z,0.00
2023-03-06T05:21:09.498Z,0.00
2023-03-06T05:22:09.464Z,0.00
2023-03-06T05:23:09.452Z,0.00
2023-03-06T05:24:09.450Z,0.00
2023-03-06T05:25:09.426Z,0.00
2023-03-06T05:26:09.421Z,0.00
2023-03-06T05:27:09.392Z,0.00
2023-03-06T05:28:09.389Z,0.00
2023-03-06T05:29:09.381Z,0.00
2023-03-06T05:30:09.352Z,0.00
2023-03-06T05:31:09.368Z,0.00
2023-03-06T05:32:09.427Z,0.00
2023-03-06T05:33:09.325Z,0.00
2023-03-06T05:34:09.303Z,0.00
2023-03-06T05:35:09.292Z,0.00
2023-03-06T05:36:09.346Z,0.00
2023-03-06T05:37:09.270Z,0.00
2023-03-06T05:38:09.262Z,0.00
2023-03-06T05:39:09.253Z,0.00
2023-03-06T05:40:09.231Z,0.00
2023-03-06T05:41:09.254Z,0.00
2023-03-06T05:42:09.203Z,0.00
2023-03-06T05:43:09.192Z,0.00
2023-03-06T05:44:09.192Z,4.00
2023-03-06T05:45:09.190Z,0.00
2023-03-06T05:46:09.244Z,0.00
2023-03-06T05:47:09.159Z,4.00
2023-03-06T05:48:09.136Z,4.00
2023-03-06T05:49:09.125Z,4.00
2023-03-06T05:50:09.122Z,4.00
2023-03-06T05:51:09.105Z,8.00
2023-03-06T05:52:09.078Z,8.00
2023-03-06T05:53:09.075Z,8.00
2023-03-06T05:54:09.046Z,12.00
2023-03-06T05:55:09.048Z,12.00
2023-03-06T05:56:09.085Z,12.00
2023-03-06T05:57:09.018Z,16.00
2023-03-06T05:58:08.998Z,16.00
2023-03-06T05:59:08.991Z,24.00
2023-03-06T06:00:08.975Z,24.00
2023-03-06T06:01:08.978Z,28.00
2023-03-06T06:02:09.008Z,36.00
2023-03-06T06:03:08.962Z,40.00
2023-03-06T06:04:08.918Z,44.00
2023-03-06T06:05:10.250Z,44.00
2023-03-06T06:06:08.898Z,56.00
2023-03-06T06:07:08.885Z,64.00
2023-03-06T06:08:08.866Z,72.00
2023-03-06T06:09:08.878Z,80.00
2023-03-06T06:10:08.838Z,88.00
2023-03-06T06:11:08.876Z,92.00
2023-03-06T06:12:08.821Z,96.00
2023-03-06T06:13:08.806Z,108.00
2023-03-06T06:14:08.790Z,120.00
2023-03-06T06:15:08.797Z,136.00
2023-03-06T06:16:08.825Z,144.00
2023-03-06T06:17:08.771Z,148.00
2023-03-06T06:18:08.735Z,156.00
2023-03-06T06:19:08.732Z,160.00
2023-03-06T06:20:08.709Z,188.00
2023-03-06T06:21:08.774Z,216.00
2023-03-06T06:22:08.695Z,236.00
2023-03-06T06:23:08.673Z,244.00
2023-03-06T06:24:08.670Z,256.00
2023-03-06T06:25:08.659Z,288.00
2023-03-06T06:26:08.642Z,320.00
2023-03-06T06:27:08.636Z,348.00
2023-03-06T06:28:08.612Z,364.00
2023-03-06T06:29:08.600Z,388.00
2023-03-06T06:30:08.590Z,396.00
2023-03-06T06:31:08.638Z,408.00
2023-03-06T06:32:08.583Z,416.00
2023-03-06T06:33:08.540Z,412.00
2023-03-06T06:34:08.562Z,432.00
2023-03-06T06:35:08.533Z,456.00
2023-03-06T06:36:08.502Z,456.00
2023-03-06T06:37:08.508Z,460.00
2023-03-06T06:38:08.479Z,452.00
2023-03-06T06:39:08.469Z,440.00
2023-03-06T06:40:08.452Z,440.00
2023-03-06T06:42:28.902Z,420.00
2023-03-06T06:43:09.408Z,400.00
2023-03-06T06:44:08.759Z,432.00
2023-03-06T06:45:08.399Z,436.00
2023-03-06T06:46:36.492Z,436.00
2023-03-06T06:47:25.757Z,444.00
2023-03-06T06:48:09.372Z,484.00
2023-03-06T06:49:08.337Z,500.00
2023-03-06T06:50:08.315Z,512.00
2023-03-06T06:51:08.307Z,552.00
2023-03-06T06:52:08.317Z,524.00
2023-03-06T06:53:08.285Z,512.00
2023-03-06T06:54:08.267Z,488.00
2023-03-06T06:55:08.273Z,472.00
2023-03-06T06:56:08.239Z,496.00
2023-03-06T06:57:08.247Z,520.00
2023-03-06T06:58:08.231Z,496.00
2023-03-06T06:59:16.629Z,528.00
2023-03-06T07:00:09.183Z,576.00
2023-03-06T07:01:08.243Z,588.00
2023-03-06T07:02:08.208Z,648.00
2023-03-06T07:03:08.144Z,668.00
2023-03-06T07:04:08.184Z,676.00
2023-03-06T07:05:08.130Z,744.00
2023-03-06T07:06:08.117Z,744.00
2023-03-06T07:07:08.117Z,800.00
2023-03-06T07:08:08.083Z,812.00
2023-03-06T07:09:08.087Z,852.00
2023-03-06T07:10:08.064Z,832.00
2023-03-06T07:11:08.051Z,796.00
2023-03-06T07:12:08.108Z,848.00
2023-03-06T07:13:08.040Z,796.00
2023-03-06T07:14:08.003Z,644.00
2023-03-06T07:15:08.014Z,576.00
2023-03-06T07:16:08.067Z,556.00
2023-03-06T07:17:07.989Z,484.00
2023-03-06T07:18:07.961Z,484.00
2023-03-06T07:19:07.942Z,492.00
2023-03-06T07:20:07.925Z,500.00
2023-03-06T07:21:07.915Z,508.00
2023-03-06T07:22:07.907Z,552.00
2023-03-06T07:23:07.914Z,572.00
2023-03-06T07:24:07.871Z,648.00
2023-03-06T07:25:07.870Z,768.00
2023-03-06T07:26:07.851Z,760.00
2023-03-06T07:27:07.844Z,636.00
2023-03-06T07:28:07.935Z,592.00
2023-03-06T07:29:07.820Z,656.00
2023-03-06T07:30:07.810Z,752.00
2023-03-06T07:31:07.853Z,708.00
2023-03-06T07:32:07.813Z,616.00
2023-03-06T07:33:07.768Z,560.00
2023-03-06T07:34:07.748Z,604.00
2023-03-06T07:35:19.783Z,600.00
2023-03-06T07:36:10.540Z,520.00
2023-03-06T07:37:07.710Z,508.00
2023-03-06T07:38:07.716Z,568.00
2023-03-06T07:39:07.685Z,504.00
2023-03-06T07:40:07.684Z,508.00
2023-03-06T07:41:07.661Z,500.00
2023-03-06T07:42:07.652Z,496.00
2023-03-06T07:43:18.741Z,580.00
2023-03-06T07:44:08.622Z,632.00
2023-03-06T07:45:07.600Z,600.00
2023-03-06T07:46:07.632Z,604.00
2023-03-06T07:47:07.585Z,532.00
2023-03-06T07:48:07.580Z,512.00
2023-03-06T07:49:07.559Z,584.00
2023-03-06T07:50:07.558Z,620.00
2023-03-06T07:51:07.530Z,692.00
2023-03-06T07:52:07.521Z,720.00
2023-03-06T07:53:07.528Z,664.00
2023-03-06T07:54:07.492Z,628.00
2023-03-06T07:55:07.479Z,584.00
2023-03-06T07:56:07.469Z,624.00
2023-03-06T07:57:07.449Z,596.00
2023-03-06T07:58:07.440Z,584.00
2023-03-06T07:59:07.445Z,644.00
2023-03-06T08:00:07.424Z,628.00
2023-03-06T08:01:07.402Z,604.00
2023-03-06T08:02:07.388Z,548.00
2023-03-06T08:03:07.382Z,584.00
2023-03-06T08:04:07.442Z,600.00
2023-03-06T08:05:07.367Z,612.00
2023-03-06T08:06:07.358Z,712.00
2023-03-06T08:07:07.320Z,748.00
2023-03-06T08:08:07.318Z,764.00
2023-03-06T08:09:07.328Z,820.00
2023-03-06T08:10:07.290Z,924.00
2023-03-06T08:11:07.285Z,1116.00
2023-03-06T08:12:07.256Z,1196.00
2023-03-06T08:13:07.258Z,1108.00
2023-03-06T08:14:07.248Z,900.00
2023-03-06T08:15:07.250Z,828.00
2023-03-06T08:16:07.267Z,860.00
2023-03-06T08:17:07.215Z,980.00
2023-03-06T08:18:07.172Z,976.00
2023-03-06T08:19:07.192Z,872.00
2023-03-06T08:20:07.158Z,820.00
2023-03-06T08:21:07.168Z,888.00
2023-03-06T08:22:07.148Z,820.00
2023-03-06T08:23:07.113Z,752.00
2023-03-06T08:24:07.643Z,720.00
2023-03-06T08:25:07.224Z,748.00
2023-03-06T08:26:07.074Z,812.00
2023-03-06T08:27:07.060Z,888.00
2023-03-06T08:28:07.049Z,844.00
2023-03-06T08:29:07.074Z,816.00
2023-03-06T08:30:07.021Z,756.00
2023-03-06T08:31:07.084Z,752.00
2023-03-06T08:32:07.068Z,708.00
2023-03-06T08:33:06.987Z,748.00
2023-03-06T08:34:06.988Z,988.00
2023-03-06T08:35:07.065Z,1204.00
2023-03-06T08:36:06.935Z,1292.00
2023-03-06T08:37:06.990Z,1404.00
2023-03-06T08:38:06.914Z,1756.00
2023-03-06T08:39:06.922Z,2332.00
2023-03-06T08:40:06.891Z,2520.00
2023-03-06T08:41:06.880Z,2068.00
2023-03-06T08:42:06.867Z,1788.00
2023-03-06T08:43:06.856Z,1540.00
2023-03-06T08:44:06.852Z,1288.00
2023-03-06T08:45:06.897Z,1296.00
2023-03-06T08:46:06.871Z,1568.00
2023-03-06T08:47:06.800Z,1808.00
2023-03-06T08:48:06.796Z,1884.00
2023-03-06T08:49:06.783Z,1908.00
2023-03-06T08:50:06.757Z,1856.00
2023-03-06T08:51:06.746Z,1564.00
2023-03-06T08:52:06.749Z,1320.00
2023-03-06T08:53:06.730Z,1424.00
2023-03-06T08:54:06.724Z,1384.00
2023-03-06T08:55:06.749Z,1384.00
2023-03-06T08:56:06.679Z,1524.00
2023-03-06T08:57:06.715Z,1612.00
2023-03-06T08:58:06.707Z,1724.00
2023-03-06T08:59:06.669Z,1940.00
2023-03-06T09:00:06.628Z,1700.00
2023-03-06T09:01:06.682Z,1732.00
2023-03-06T09:02:06.629Z,1928.00
2023-03-06T09:03:06.596Z,2120.00
2023-03-06T09:04:06.591Z,2172.00
2023-03-06T09:05:59.824Z,1528.00
2023-03-06T09:06:59.816Z,1436.00
2023-03-06T09:07:59.798Z,1336.00
2023-03-06T09:08:59.812Z,1272.00
2023-03-06T09:09:59.787Z,1224.00
2023-03-06T09:10:59.769Z,1264.00
2023-03-06T09:11:59.740Z,1244.00
2023-03-06T09:12:59.777Z,1132.00
2023-03-06T09:13:59.724Z,1088.00
2023-03-06T09:14:59.952Z,908.00
2023-03-06T09:15:59.689Z,732.00
2023-03-06T09:16:59.771Z,592.00
2023-03-06T09:17:59.685Z,588.00
2023-03-06T09:18:59.652Z,700.00
2023-03-06T09:19:59.655Z,960.00
2023-03-06T09:20:59.633Z,1184.00
2023-03-06T09:21:59.613Z,1104.00
2023-03-06T09:22:59.612Z,896.00
2023-03-06T09:23:59.591Z,872.00
2023-03-06T09:24:59.593Z,996.00
2023-03-06T09:25:59.565Z,1184.00
2023-03-06T09:26:59.553Z,1108.00
2023-03-06T09:28:10.951Z,1040.00
2023-03-06T09:29:00.528Z,1008.00
2023-03-06T09:29:59.530Z,1032.00
2023-03-06T09:30:59.672Z,916.00
2023-03-06T09:31:59.501Z,832.00
2023-03-06T09:32:59.483Z,948.00
2023-03-06T09:33:59.474Z,1060.00
2023-03-06T09:34:59.470Z,1076.00
2023-03-06T09:35:59.474Z,1168.00
2023-03-06T09:36:59.428Z,1316.00
2023-03-06T09:37:59.413Z,1556.00
2023-03-06T09:38:59.413Z,1788.00
2023-03-06T09:39:59.409Z,2008.00
2023-03-06T09:40:59.372Z,2228.00
2023-03-06T09:41:59.373Z,2360.00
2023-03-06T09:42:59.352Z,2432.00
2023-03-06T09:43:59.340Z,2536.00
2023-03-06T09:44:59.338Z,2708.00
2023-03-06T09:45:59.381Z,2848.00
2023-03-06T09:46:59.297Z,3048.00
2023-03-06T09:47:59.304Z,3256.00
2023-03-06T09:48:59.278Z,3380.00
2023-03-06T09:49:59.279Z,3412.00
2023-03-06T09:50:59.778Z,3416.00
2023-03-06T09:51:59.244Z,3452.00
2023-03-06T09:52:59.224Z,3304.00
2023-03-06T09:53:59.218Z,3200.00
2023-03-06T09:54:59.238Z,3244.00
2023-03-06T09:55:59.195Z,3456.00
2023-03-06T09:56:59.174Z,3796.00
2023-03-06T09:57:59.172Z,4152.00
2023-03-06T09:58:59.155Z,4256.00
2023-03-06T09:59:59.145Z,4460.00
2023-03-06T10:00:59.115Z,4764.00
2023-03-06T10:01:59.182Z,5096.00
2023-03-06T10:02:59.194Z,5280.00
2023-03-06T10:03:59.096Z,5180.00
2023-03-06T10:04:59.088Z,5260.00
2023-03-06T10:06:00.962Z,5612.00
2023-03-06T10:06:59.043Z,5612.00
2023-03-06T10:07:59.033Z,5800.00
2023-03-06T10:08:59.013Z,5048.00
2023-03-06T10:09:59.042Z,4840.00
2023-03-06T10:10:58.989Z,4952.00
2023-03-06T10:11:58.984Z,4648.00
2023-03-06T10:12:58.959Z,4336.00
2023-03-06T10:13:58.959Z,3968.00
2023-03-06T10:14:58.951Z,3700.00
2023-03-06T10:15:58.975Z,3544.00
2023-03-06T10:16:58.912Z,3340.00
2023-03-06T10:17:58.909Z,2992.00
2023-03-06T10:18:58.889Z,2692.00
2023-03-06T10:19:58.888Z,2452.00
2023-03-06T10:21:04.697Z,2304.00
2023-03-06T10:21:59.887Z,2084.00
2023-03-06T10:23:03.199Z,1864.00
2023-03-06T10:23:59.821Z,1812.00
2023-03-06T10:24:58.834Z,1736.00
2023-03-06T10:25:58.803Z,1640.00
2023-03-06T10:26:58.890Z,1624.00
2023-03-06T10:27:58.787Z,1652.00
2023-03-06T10:28:58.764Z,1744.00
2023-03-06T10:30:03.182Z,1800.00
2023-03-06T10:30:59.841Z,1868.00
2023-03-06T10:31:58.729Z,1996.00
2023-03-06T10:32:58.789Z,2192.00
2023-03-06T10:33:58.702Z,2556.00
2023-03-06T10:34:58.689Z,2968.00
2023-03-06T10:35:58.711Z,3228.00
2023-03-06T10:36:58.669Z,3360.00
2023-03-06T10:37:58.651Z,3480.00
2023-03-06T10:38:58.642Z,3588.00
2023-03-06T10:39:58.620Z,3688.00
2023-03-06T10:40:58.620Z,3732.00
2023-03-06T10:41:58.618Z,3780.00
2023-03-06T10:43:10.825Z,3788.00
2023-03-06T10:43:59.568Z,3784.00
2023-03-06T10:44:58.568Z,3784.00
2023-03-06T10:45:58.627Z,3704.00
2023-03-06T10:46:58.539Z,3512.00
2023-03-06T10:47:58.530Z,3416.00
2023-03-06T10:48:58.509Z,3572.00
2023-03-06T10:49:58.515Z,3752.00
2023-03-06T10:50:59.694Z,3768.00
2023-03-06T10:51:58.509Z,3760.00
2023-03-06T10:52:58.457Z,3820.00
2023-03-06T10:53:58.447Z,3828.00
2023-03-06T10:54:58.445Z,3804.00
2023-03-06T10:55:58.430Z,3752.00
2023-03-06T10:56:58.407Z,3628.00
2023-03-06T10:57:58.394Z,3552.00
2023-03-06T10:58:58.376Z,3568.00
2023-03-06T10:59:58.378Z,3592.00
2023-03-06T11:00:58.364Z,3616.00
2023-03-06T11:01:58.425Z,3576.00
2023-03-06T11:02:58.326Z,3404.00
2023-03-06T11:03:58.313Z,3212.00
2023-03-06T11:04:58.309Z,3156.00
2023-03-06T11:05:58.303Z,3044.00
2023-03-06T11:06:58.273Z,2888.00
2023-03-06T11:07:58.272Z,2764.00
2023-03-06T11:08:58.257Z,2736.00
2023-03-06T11:09:58.264Z,2756.00
2023-03-06T11:10:58.232Z,2716.00
2023-03-06T11:11:58.213Z,2680.00
2023-03-06T11:12:58.212Z,2560.00
2023-03-06T11:13:58.191Z,2300.00
2023-03-06T11:14:58.162Z,2008.00
2023-03-06T11:15:58.251Z,1800.00
2023-03-06T11:16:58.140Z,1680.00
2023-03-06T11:17:58.145Z,1592.00
2023-03-06T11:18:58.111Z,1484.00
2023-03-06T11:19:58.111Z,1356.00
2023-03-06T11:20:58.091Z,1248.00
2023-03-06T11:21:58.092Z,1204.00
2023-03-06T11:22:58.072Z,1216.00
2023-03-06T11:23:58.059Z,1256.00
2023-03-06T11:24:58.048Z,1280.00
2023-03-06T11:25:58.030Z,1268.00
2023-03-06T11:26:58.044Z,1224.00
2023-03-06T11:27:58.009Z,1184.00
2023-03-06T11:28:58.084Z,1112.00
2023-03-06T11:29:57.978Z,1008.00
2023-03-06T11:30:57.966Z,888.00
2023-03-06T11:31:58.067Z,804.00
2023-03-06T11:32:57.936Z,724.00
2023-03-06T11:33:57.933Z,656.00
2023-03-06T11:34:57.916Z,600.00
2023-03-06T11:35:57.964Z,536.00
2023-03-06T11:36:57.905Z,524.00
2023-03-06T11:37:57.885Z,572.00
2023-03-06T11:38:57.861Z,624.00
2023-03-06T11:39:57.863Z,676.00
2023-03-06T11:40:57.833Z,716.00
2023-03-06T11:41:57.846Z,764.00
2023-03-06T11:42:57.820Z,820.00
2023-03-06T11:43:57.801Z,868.00
2023-03-06T11:44:57.782Z,920.00
2023-03-06T11:45:57.789Z,988.00
2023-03-06T11:46:57.811Z,1052.00
2023-03-06T11:47:57.762Z,1104.00
2023-03-06T11:48:57.731Z,1164.00
2023-03-06T11:49:57.721Z,1268.00
2023-03-06T11:50:57.716Z,1392.00
2023-03-06T11:51:57.722Z,1504.00
2023-03-06T11:52:57.696Z,1620.00
2023-03-06T11:53:57.680Z,1748.00
2023-03-06T11:54:57.661Z,1880.00
2023-03-06T11:55:57.650Z,2036.00
2023-03-06T11:56:57.650Z,2216.00
2023-03-06T11:57:57.628Z,2376.00
2023-03-06T11:58:57.610Z,2556.00
2023-03-06T11:59:57.605Z,2740.00
2023-03-06T12:00:57.582Z,2912.00
2023-03-06T12:01:57.642Z,3104.00
2023-03-06T12:02:57.563Z,3332.00
2023-03-06T12:03:57.938Z,3584.00
2023-03-06T12:04:57.557Z,3844.00
2023-03-06T12:05:57.522Z,4172.00
2023-03-06T12:06:57.521Z,4548.00
2023-03-06T12:07:57.512Z,5024.00
2023-03-06T12:08:57.491Z,5616.00
2023-03-06T12:09:57.480Z,6272.00
2023-03-06T12:10:57.462Z,6924.00
2023-03-06T12:11:57.452Z,7620.00
2023-03-06T12:12:57.451Z,8728.00
2023-03-06T12:13:58.314Z,29280.00
2023-03-06T12:14:57.409Z,12860.00
2023-03-06T12:15:57.389Z,11240.00
2023-03-06T12:16:57.387Z,11980.00
2023-03-06T12:17:57.396Z,12744.00
2023-03-06T12:18:57.360Z,13744.00
2023-03-06T12:19:57.341Z,19776.00
2023-03-06T12:20:57.338Z,14940.00
2023-03-06T12:21:57.317Z,15936.00
2023-03-06T12:22:58.176Z,18176.00
2023-03-06T12:23:58.287Z,20992.00
2023-03-06T12:24:57.288Z,38816.00
2023-03-06T12:25:57.267Z,41376.00
2023-03-06T12:26:57.259Z,29152.00
2023-03-06T12:27:57.254Z,91232.00
2023-03-06T12:28:57.227Z,42496.00
2023-03-06T12:29:57.207Z,55744.00
2023-03-06T12:30:57.208Z,59616.00
2023-03-06T12:31:57.254Z,64096.00
2023-03-06T12:32:57.200Z,78528.00
2023-03-06T12:33:57.164Z,78624.00
2023-03-06T12:34:57.146Z,78432.00
2023-03-06T12:35:57.168Z,77344.00
2023-03-06T12:36:57.126Z,77728.00
2023-03-06T12:37:57.125Z,76640.00
2023-03-06T12:38:57.096Z,75712.00
2023-03-06T12:39:57.089Z,72544.00
2023-03-06T12:40:57.076Z,74784.00
2023-03-06T12:41:57.056Z,60032.00
2023-03-06T12:42:57.066Z,74848.00
2023-03-06T12:43:57.037Z,74368.00
2023-03-06T12:44:57.015Z,72576.00
2023-03-06T12:45:57.030Z,59584.00
2023-03-06T12:46:56.995Z,51968.00
2023-03-06T12:47:56.985Z,56480.00
2023-03-06T12:48:56.976Z,53088.00
2023-03-06T12:49:56.954Z,40288.00
2023-03-06T12:50:56.941Z,56320.00
2023-03-06T12:51:56.924Z,56192.00
2023-03-06T12:52:56.928Z,55168.00
2023-03-06T12:53:56.912Z,53600.00
2023-03-06T12:54:56.888Z,48352.00
2023-03-06T12:55:56.896Z,45856.00
2023-03-06T12:56:56.908Z,48320.00
2023-03-06T12:57:56.848Z,49632.00
2023-03-06T12:58:56.854Z,31840.00
2023-03-06T12:59:56.824Z,41152.00
2023-03-06T13:01:03.534Z,16640.00
2023-03-06T13:01:57.800Z,13652.00
2023-03-06T13:02:56.789Z,11496.00
2023-03-06T13:03:56.780Z,11260.00
2023-03-06T13:04:56.761Z,9832.00
2023-03-06T13:05:56.751Z,9292.00
2023-03-06T13:06:56.755Z,8876.00
2023-03-06T13:07:56.826Z,8568.00
2023-03-06T13:08:56.730Z,8668.00
2023-03-06T13:09:56.691Z,9276.00
2023-03-06T13:10:56.688Z,10320.00
2023-03-06T13:11:56.672Z,13512.00
2023-03-06T13:12:56.664Z,12272.00
2023-03-06T13:13:56.662Z,9400.00
2023-03-06T13:14:56.679Z,8116.00
2023-03-06T13:15:56.626Z,7248.00
2023-03-06T13:16:56.656Z,6676.00
2023-03-06T13:17:56.602Z,6700.00
2023-03-06T13:18:56.594Z,7176.00
2023-03-06T13:19:56.571Z,8732.00
2023-03-06T13:20:56.559Z,24512.00
2023-03-06T13:21:56.548Z,12056.00
2023-03-06T13:22:56.532Z,9348.00
2023-03-06T13:23:56.531Z,9500.00
2023-03-06T13:25:03.502Z,10168.00
2023-03-06T13:25:57.507Z,11116.00
2023-03-06T13:26:56.495Z,22848.00
2023-03-06T13:27:56.461Z,16960.00
2023-03-06T13:28:56.446Z,24640.00
2023-03-06T13:29:56.451Z,28384.00
2023-03-06T13:30:56.488Z,28736.00
2023-03-06T13:31:56.415Z,29920.00
2023-03-06T13:32:56.404Z,31712.00
2023-03-06T13:33:56.384Z,32064.00
2023-03-06T13:34:56.389Z,30624.00
2023-03-06T13:35:56.467Z,18912.00
2023-03-06T13:36:56.345Z,14672.00
2023-03-06T13:37:56.336Z,13260.00
2023-03-06T13:38:56.335Z,12824.00
2023-03-06T13:39:56.535Z,15744.00
2023-03-06T13:40:56.297Z,30592.00
2023-03-06T13:41:56.354Z,17632.00
2023-03-06T13:42:56.255Z,20928.00
2023-03-06T13:43:56.243Z,24640.00
2023-03-06T13:44:56.246Z,22048.00
2023-03-06T13:45:56.277Z,18144.00
2023-03-06T13:46:56.223Z,34656.00
2023-03-06T13:48:25.035Z,16384.00
2023-03-06T13:48:57.189Z,26048.00
2023-03-06T13:49:56.192Z,20128.00
2023-03-06T13:50:56.163Z,16960.00
2023-03-06T13:51:56.152Z,15648.00
2023-03-06T13:52:56.119Z,15200.00
2023-03-06T13:53:56.170Z,14556.00
2023-03-06T13:54:56.114Z,14468.00
2023-03-06T13:55:56.092Z,15020.00
2023-03-06T13:56:56.090Z,15296.00
2023-03-06T13:57:56.061Z,14772.00
2023-03-06T13:58:56.041Z,14228.00
2023-03-06T14:00:03.081Z,14508.00
2023-03-06T14:00:57.018Z,14088.00
2023-03-06T14:01:56.015Z,13852.00
2023-03-06T14:02:56.051Z,13380.00
2023-03-06T14:03:55.980Z,13240.00
2023-03-06T14:04:55.987Z,13216.00
2023-03-06T14:05:55.958Z,13348.00
2023-03-06T14:06:55.946Z,13584.00
2023-03-06T14:07:55.928Z,13428.00
2023-03-06T14:08:55.918Z,13068.00
2023-03-06T14:09:55.918Z,12872.00
2023-03-06T14:10:55.889Z,12532.00
2023-03-06T14:11:55.889Z,12116.00
2023-03-06T14:12:55.857Z,11596.00
2023-03-06T14:13:55.866Z,11684.00
2023-03-06T14:14:55.875Z,12044.00
2023-03-06T14:15:55.887Z,11144.00
2023-03-06T14:16:55.806Z,10424.00
2023-03-06T14:17:55.804Z,9752.00
2023-03-06T14:18:55.808Z,9280.00
2023-03-06T14:19:55.798Z,8744.00
2023-03-06T14:20:55.755Z,8012.00
2023-03-06T14:21:55.748Z,7596.00
2023-03-06T14:22:55.735Z,7644.00
2023-03-06T14:23:55.726Z,8448.00
2023-03-06T14:24:55.715Z,8404.00
2023-03-06T14:25:55.708Z,8820.00
2023-03-06T14:26:55.682Z,8812.00
2023-03-06T14:28:02.891Z,8764.00
2023-03-06T14:28:56.651Z,8144.00
2023-03-06T14:29:55.653Z,7760.00
2023-03-06T14:30:55.649Z,7412.00
2023-03-06T14:31:55.637Z,6756.00
2023-03-06T14:32:55.606Z,6120.00
2023-03-06T14:33:55.598Z,5756.00
2023-03-06T14:34:55.708Z,5744.00
2023-03-06T14:35:56.548Z,5836.00
2023-03-06T14:36:55.549Z,6276.00
2023-03-06T14:37:55.571Z,6688.00
2023-03-06T14:38:55.526Z,7472.00
2023-03-06T14:39:55.537Z,8408.00
2023-03-06T14:40:55.498Z,8744.00
2023-03-06T14:41:55.488Z,9064.00
2023-03-06T14:42:55.493Z,9508.00
2023-03-06T14:43:55.469Z,9572.00
2023-03-06T14:44:55.509Z,9228.00
2023-03-06T14:45:55.447Z,8600.00
2023-03-06T14:46:55.459Z,8416.00
2023-03-06T14:47:55.409Z,8428.00
2023-03-06T14:48:55.399Z,7804.00
2023-03-06T14:49:55.388Z,7216.00
2023-03-06T14:50:55.385Z,7028.00
2023-03-06T14:51:55.402Z,7224.00
2023-03-06T14:52:55.345Z,7288.00
2023-03-06T14:53:55.346Z,7184.00
2023-03-06T14:54:55.346Z,6868.00
2023-03-06T14:55:55.327Z,6592.00
2023-03-06T14:56:55.298Z,6316.00
2023-03-06T14:57:55.290Z,6340.00
2023-03-06T14:58:55.282Z,6216.00
2023-03-06T14:59:55.256Z,6096.00
2023-03-06T15:00:55.338Z,5840.00
2023-03-06T15:01:55.241Z,5872.00
2023-03-06T15:02:55.231Z,5776.00
2023-03-06T15:03:55.219Z,5796.00
2023-03-06T15:04:55.297Z,5796.00
2023-03-06T15:05:55.196Z,5484.00
2023-03-06T15:06:55.211Z,5336.00
2023-03-06T15:07:55.155Z,5344.00
2023-03-06T15:08:55.148Z,5488.00
2023-03-06T15:09:55.143Z,5736.00
2023-03-06T15:10:55.135Z,5924.00
2023-03-06T15:11:55.112Z,6100.00
2023-03-06T15:12:55.103Z,6268.00
2023-03-06T15:13:55.072Z,6560.00
2023-03-06T15:14:55.062Z,6944.00
2023-03-06T15:15:55.081Z,7180.00
2023-03-06T15:16:55.035Z,7440.00
2023-03-06T15:17:55.022Z,7744.00
2023-03-06T15:18:55.013Z,7920.00
2023-03-06T15:19:54.991Z,8116.00
2023-03-06T15:20:55.001Z,8024.00
2023-03-06T15:21:54.970Z,7912.00
2023-03-06T15:22:54.959Z,7780.00
2023-03-06T15:23:54.940Z,7660.00
2023-03-06T15:24:54.929Z,7616.00
2023-03-06T15:25:54.930Z,7540.00
2023-03-06T15:26:54.907Z,7524.00
2023-03-06T15:27:54.890Z,7460.00
2023-03-06T15:28:59.950Z,7376.00
2023-03-06T15:29:55.858Z,7284.00
2023-03-06T15:30:54.880Z,7144.00
2023-03-06T15:31:54.879Z,6952.00
2023-03-06T15:32:54.827Z,6760.00
2023-03-06T15:33:54.807Z,6540.00
2023-03-06T15:34:54.809Z,6392.00
2023-03-06T15:35:54.829Z,6360.00
2023-03-06T15:36:54.787Z,6408.00
2023-03-06T15:37:54.755Z,6460.00
2023-03-06T15:38:54.746Z,6436.00
2023-03-06T15:39:54.747Z,6476.00
2023-03-06T15:40:54.746Z,6576.00
2023-03-06T15:41:54.706Z,6652.00
2023-03-06T15:42:54.697Z,6804.00
2023-03-06T15:43:54.681Z,7024.00
2023-03-06T15:44:54.698Z,7308.00
2023-03-06T15:45:54.686Z,7808.00
2023-03-06T15:47:07.781Z,11964.00
2023-03-06T15:47:55.638Z,15456.00
2023-03-06T15:48:54.633Z,19520.00
2023-03-06T15:49:54.607Z,21024.00
2023-03-06T15:50:54.631Z,16800.00
2023-03-06T15:51:54.636Z,7968.00
2023-03-06T15:52:54.579Z,14688.00
2023-03-06T15:53:57.239Z,17408.00
2023-03-06T15:54:55.549Z,13312.00
2023-03-06T15:55:54.552Z,14816.00
2023-03-06T15:56:54.529Z,12800.00
2023-03-06T15:57:54.540Z,13068.00
2023-03-06T15:58:54.510Z,15616.00
2023-03-06T15:59:54.477Z,17088.00
2023-03-06T16:00:54.562Z,14752.00
2023-03-06T16:01:54.481Z,15584.00
2023-03-06T16:02:54.449Z,15872.00
2023-03-06T16:03:54.494Z,17216.00
2023-03-06T16:04:54.426Z,18528.00
2023-03-06T16:05:54.407Z,20800.00
2023-03-06T16:06:54.411Z,19904.00
2023-03-06T16:07:54.390Z,20992.00
2023-03-06T16:08:54.369Z,19360.00
2023-03-06T16:09:54.359Z,16736.00
2023-03-06T16:10:54.349Z,15360.00
2023-03-06T16:11:54.342Z,14080.00
2023-03-06T16:12:54.322Z,14496.00
2023-03-06T16:13:54.306Z,12428.00
2023-03-06T16:14:54.298Z,11404.00
2023-03-06T16:15:54.278Z,11356.00
2023-03-06T16:16:54.482Z,11912.00
2023-03-06T16:17:54.253Z,8896.00
2023-03-06T16:18:54.243Z,10380.00
2023-03-06T16:19:54.227Z,9680.00
2023-03-06T16:20:54.227Z,9796.00
2023-03-06T16:21:54.227Z,6600.00
2023-03-06T16:22:54.186Z,6072.00
2023-03-06T16:23:54.172Z,4804.00
2023-03-06T16:24:54.154Z,3960.00
2023-03-06T16:25:54.145Z,3456.00
2023-03-06T16:26:54.144Z,3188.00
2023-03-06T16:27:54.111Z,3000.00
2023-03-06T16:28:54.114Z,2832.00
2023-03-06T16:29:54.092Z,2704.00
2023-03-06T16:30:54.125Z,2604.00
2023-03-06T16:31:54.071Z,2516.00
2023-03-06T16:32:54.060Z,2432.00
2023-03-06T16:33:54.038Z,2348.00
2023-03-06T16:34:54.043Z,2268.00
2023-03-06T16:35:54.056Z,2204.00
2023-03-06T16:36:54.008Z,2140.00
2023-03-06T16:37:53.995Z,2068.00
2023-03-06T16:38:53.979Z,2012.00
2023-03-06T16:39:53.959Z,1968.00
2023-03-06T16:40:53.948Z,1932.00
2023-03-06T16:41:53.960Z,1896.00
2023-03-06T16:42:55.095Z,1856.00
2023-03-06T16:43:53.909Z,1804.00
2023-03-06T16:44:53.897Z,1744.00
2023-03-06T16:45:53.922Z,1668.00
2023-03-06T16:46:53.890Z,1584.00
2023-03-06T16:47:53.856Z,1492.00
2023-03-06T16:48:53.854Z,1404.00
2023-03-06T16:49:53.888Z,1316.00
2023-03-06T16:50:53.829Z,1228.00
2023-03-06T16:51:53.821Z,1136.00
2023-03-06T16:52:53.803Z,1044.00
2023-03-06T16:53:53.777Z,940.00
2023-03-06T16:54:53.769Z,848.00
2023-03-06T16:55:53.764Z,760.00
2023-03-06T16:56:53.758Z,684.00
2023-03-06T16:57:53.739Z,620.00
2023-03-06T16:58:53.728Z,560.00
2023-03-06T16:59:53.702Z,508.00
2023-03-06T17:00:53.699Z,460.00
2023-03-06T17:01:53.687Z,420.00
2023-03-06T17:02:53.768Z,384.00
2023-03-06T17:03:53.679Z,344.00
2023-03-06T17:04:53.648Z,304.00
2023-03-06T17:05:53.649Z,268.00
2023-03-06T17:06:53.623Z,236.00
2023-03-06T17:07:53.627Z,212.00
2023-03-06T17:08:53.587Z,184.00
2023-03-06T17:09:53.566Z,160.00
2023-03-06T17:10:53.564Z,136.00
2023-03-06T17:11:53.547Z,116.00
2023-03-06T17:12:53.545Z,104.00
2023-03-06T17:13:53.526Z,88.00
2023-03-06T17:14:53.533Z,76.00
2023-03-06T17:15:53.541Z,68.00
2023-03-06T17:16:53.486Z,60.00
2023-03-06T17:17:53.475Z,48.00
2023-03-06T17:18:53.464Z,44.00
2023-03-06T17:19:53.452Z,40.00
2023-03-06T17:20:53.424Z,32.00
2023-03-06T17:21:53.439Z,28.00
2023-03-06T17:22:53.425Z,24.00
2023-03-06T17:23:53.403Z,20.00
2023-03-06T17:24:53.384Z,16.00
2023-03-06T17:25:53.364Z,16.00
2023-03-06T17:26:53.364Z,16.00
2023-03-06T17:27:53.380Z,12.00
2023-03-06T17:28:53.332Z,8.00